sensor_id;sensor_type;location;lat;lon;timestamp;P1;durP1;ratioP1;P2;durP2;ratioP2
46723;SDS011;32463;48.298;11.620;2022-11-23T00:01:21;13.57;;;5.13;;
46723;SDS011;32463;48.298;11.620;2022-11-23T00:03:50;9.40;;;4.78;;
46723;SDS011;32463;48.298;11.620;2022-11-23T00:06:18;9.65;;;4.45;;
46723;SDS011;32463;48.298;11.620;2022-11-23T00:08:46;9.48;;;4.07;;
46723;SDS011;32463;48.298;11.620;2022-11-23T00:11:13;9.25;;;4.28;;
46723;SDS011;32463;48.298;11.620;2022-11-23T00:13:41;8.18;;;4.05;;
46723;SDS011;32463;48.298;11.620;2022-11-23T00:16:08;12.07;;;4.13;;
46723;SDS011;32463;48.298;11.620;2022-11-23T00:18:38;10.85;;;3.70;;
46723;SDS011;32463;48.298;11.620;2022-11-23T00:21:05;8.23;;;3.88;;
46723;SDS011;32463;48.298;11.620;2022-11-23T00:23:36;7.82;;;3.53;;
46723;SDS011;32463;48.298;11.620;2022-11-23T00:26:03;9.05;;;3.35;;
46723;SDS011;32463;48.298;11.620;2022-11-23T00:28:30;6.72;;;2.95;;
46723;SDS011;32463;48.298;11.620;2022-11-23T00:30:57;9.98;;;2.92;;
46723;SDS011;32463;48.298;11.620;2022-11-23T00:33:23;7.35;;;3.05;;
46723;SDS011;32463;48.298;11.620;2022-11-23T00:38:36;9.52;;;3.00;;
46723;SDS011;32463;48.298;11.620;2022-11-23T00:41:04;9.18;;;2.97;;
46723;SDS011;32463;48.298;11.620;2022-11-23T00:43:32;12.90;;;3.17;;
46723;SDS011;32463;48.298;11.620;2022-11-23T00:46:13;12.13;;;4.25;;
46723;SDS011;32463;48.298;11.620;2022-11-23T00:48:42;11.30;;;4.33;;
46723;SDS011;32463;48.298;11.620;2022-11-23T00:51:11;9.10;;;4.30;;
46723;SDS011;32463;48.298;11.620;2022-11-23T00:53:40;12.15;;;4.30;;
46723;SDS011;32463;48.298;11.620;2022-11-23T00:56:07;13.77;;;4.13;;
46723;SDS011;32463;48.298;11.620;2022-11-23T00:58:34;12.20;;;4.32;;
46723;SDS011;32463;48.298;11.620;2022-11-23T01:01:10;7.00;;;4.15;;
46723;SDS011;32463;48.298;11.620;2022-11-23T01:03:39;13.13;;;4.70;;
46723;SDS011;32463;48.298;11.620;2022-11-23T01:06:09;12.75;;;4.93;;
46723;SDS011;32463;48.298;11.620;2022-11-23T01:08:37;9.82;;;4.53;;
46723;SDS011;32463;48.298;11.620;2022-11-23T01:11:05;11.75;;;4.82;;
46723;SDS011;32463;48.298;11.620;2022-11-23T01:13:35;13.88;;;5.45;;
46723;SDS011;32463;48.298;11.620;2022-11-23T01:16:03;8.95;;;4.15;;
46723;SDS011;32463;48.298;11.620;2022-11-23T01:18:30;12.35;;;5.57;;
46723;SDS011;32463;48.298;11.620;2022-11-23T06:36:46;10.82;;;4.65;;
46723;SDS011;32463;48.298;11.620;2022-11-23T06:39:12;13.93;;;5.97;;
46723;SDS011;32463;48.298;11.620;2022-11-23T06:41:39;15.05;;;7.50;;
46723;SDS011;32463;48.298;11.620;2022-11-23T06:44:05;13.30;;;6.75;;
46723;SDS011;32463;48.298;11.620;2022-11-23T06:46:31;16.65;;;6.95;;
46723;SDS011;32463;48.298;11.620;2022-11-23T06:48:58;14.95;;;7.97;;
46723;SDS011;32463;48.298;11.620;2022-11-23T06:51:24;18.05;;;8.02;;
46723;SDS011;32463;48.298;11.620;2022-11-23T06:53:51;15.70;;;7.40;;
46723;SDS011;32463;48.298;11.620;2022-11-23T06:56:17;17.40;;;9.05;;
46723;SDS011;32463;48.298;11.620;2022-11-23T06:58:44;11.00;;;5.75;;
46723;SDS011;32463;48.298;11.620;2022-11-23T07:01:10;10.52;;;5.15;;
46723;SDS011;32463;48.298;11.620;2022-11-23T07:03:37;12.57;;;5.78;;
46723;SDS011;32463;48.298;11.620;2022-11-23T07:06:07;19.58;;;10.10;;
46723;SDS011;32463;48.298;11.620;2022-11-23T07:08:35;34.05;;;17.95;;
46723;SDS011;32463;48.298;11.620;2022-11-23T07:11:04;25.98;;;14.00;;
46723;SDS011;32463;48.298;11.620;2022-11-23T07:13:31;21.52;;;10.38;;
46723;SDS011;32463;48.298;11.620;2022-11-23T07:15:58;14.25;;;8.15;;
46723;SDS011;32463;48.298;11.620;2022-11-23T07:18:24;12.05;;;7.35;;
46723;SDS011;32463;48.298;11.620;2022-11-23T07:20:51;14.60;;;7.10;;
46723;SDS011;32463;48.298;11.620;2022-11-23T07:23:18;11.60;;;6.90;;
46723;SDS011;32463;48.298;11.620;2022-11-23T07:25:44;11.43;;;5.75;;
46723;SDS011;32463;48.298;11.620;2022-11-23T07:28:11;11.82;;;5.32;;
46723;SDS011;32463;48.298;11.620;2022-11-23T07:30:38;8.80;;;5.00;;
46723;SDS011;32463;48.298;11.620;2022-11-23T07:33:08;9.23;;;5.22;;
46723;SDS011;32463;48.298;11.620;2022-11-23T07:35:38;9.02;;;5.15;;
46723;SDS011;32463;48.298;11.620;2022-11-23T07:38:05;11.77;;;5.20;;
46723;SDS011;32463;48.298;11.620;2022-11-23T07:40:34;8.43;;;4.60;;
46723;SDS011;32463;48.298;11.620;2022-11-23T07:43:03;9.77;;;4.53;;
46723;SDS011;32463;48.298;11.620;2022-11-23T07:45:30;10.13;;;5.05;;
46723;SDS011;32463;48.298;11.620;2022-11-23T07:48:01;9.32;;;4.78;;
46723;SDS011;32463;48.298;11.620;2022-11-23T07:50:31;8.95;;;4.95;;
46723;SDS011;32463;48.298;11.620;2022-11-23T07:53:00;11.73;;;5.30;;
46723;SDS011;32463;48.298;11.620;2022-11-23T07:55:27;9.85;;;4.40;;
46723;SDS011;32463;48.298;11.620;2022-11-23T07:57:55;7.80;;;4.32;;
46723;SDS011;32463;48.298;11.620;2022-11-23T08:00:23;11.23;;;4.03;;
46723;SDS011;32463;48.298;11.620;2022-11-23T08:02:51;10.93;;;4.25;;
46723;SDS011;32463;48.298;11.620;2022-11-23T08:05:17;13.80;;;4.55;;
46723;SDS011;32463;48.298;11.620;2022-11-23T08:07:44;8.68;;;4.18;;
46723;SDS011;32463;48.298;11.620;2022-11-23T08:10:11;10.57;;;4.28;;
46723;SDS011;32463;48.298;11.620;2022-11-23T08:12:38;9.52;;;4.40;;
46723;SDS011;32463;48.298;11.620;2022-11-23T08:15:05;8.88;;;4.10;;
46723;SDS011;32463;48.298;11.620;2022-11-23T08:17:32;10.63;;;4.18;;
46723;SDS011;32463;48.298;11.620;2022-11-23T08:19:58;8.20;;;3.92;;
46723;SDS011;32463;48.298;11.620;2022-11-23T08:22:25;8.00;;;3.55;;
46723;SDS011;32463;48.298;11.620;2022-11-23T08:24:52;7.80;;;3.75;;
46723;SDS011;32463;48.298;11.620;2022-11-23T08:27:18;7.32;;;3.40;;
46723;SDS011;32463;48.298;11.620;2022-11-23T08:29:45;5.95;;;2.92;;
46723;SDS011;32463;48.298;11.620;2022-11-23T08:32:11;7.50;;;2.95;;
46723;SDS011;32463;48.298;11.620;2022-11-23T08:34:38;7.85;;;3.17;;
46723;SDS011;32463;48.298;11.620;2022-11-23T08:37:04;6.05;;;3.60;;
46723;SDS011;32463;48.298;11.620;2022-11-23T08:39:31;9.85;;;3.70;;
46723;SDS011;32463;48.298;11.620;2022-11-23T08:41:57;8.48;;;3.15;;
46723;SDS011;32463;48.298;11.620;2022-11-23T08:44:24;6.75;;;3.03;;
46723;SDS011;32463;48.298;11.620;2022-11-23T08:46:50;5.18;;;2.88;;
46723;SDS011;32463;48.298;11.620;2022-11-23T08:49:16;5.17;;;2.90;;
46723;SDS011;32463;48.298;11.620;2022-11-23T08:51:43;4.43;;;2.50;;
46723;SDS011;32463;48.298;11.620;2022-11-23T08:54:10;4.82;;;2.60;;
46723;SDS011;32463;48.298;11.620;2022-11-23T08:56:36;6.53;;;2.85;;
46723;SDS011;32463;48.298;11.620;2022-11-23T08:59:03;7.07;;;2.90;;
46723;SDS011;32463;48.298;11.620;2022-11-23T09:01:29;5.97;;;2.60;;
46723;SDS011;32463;48.298;11.620;2022-11-23T09:03:56;8.52;;;3.88;;
46723;SDS011;32463;48.298;11.620;2022-11-23T09:06:22;6.28;;;2.80;;
46723;SDS011;32463;48.298;11.620;2022-11-23T09:08:53;6.15;;;2.95;;
46723;SDS011;32463;48.298;11.620;2022-11-23T09:11:21;8.07;;;2.92;;
46723;SDS011;32463;48.298;11.620;2022-11-23T09:13:48;7.70;;;2.80;;
46723;SDS011;32463;48.298;11.620;2022-11-23T09:16:14;5.53;;;2.80;;
46723;SDS011;32463;48.298;11.620;2022-11-23T09:18:40;9.23;;;2.85;;
46723;SDS011;32463;48.298;11.620;2022-11-23T09:21:07;6.15;;;2.63;;
46723;SDS011;32463;48.298;11.620;2022-11-23T09:23:34;8.40;;;3.35;;
46723;SDS011;32463;48.298;11.620;2022-11-23T09:26:02;8.35;;;3.22;;
46723;SDS011;32463;48.298;11.620;2022-11-23T09:28:29;5.85;;;2.58;;
46723;SDS011;32463;48.298;11.620;2022-11-23T09:30:57;9.38;;;2.78;;
46723;SDS011;32463;48.298;11.620;2022-11-23T09:33:28;7.53;;;2.60;;
46723;SDS011;32463;48.298;11.620;2022-11-23T09:35:55;8.32;;;3.40;;
46723;SDS011;32463;48.298;11.620;2022-11-23T09:38:26;6.55;;;2.70;;
46723;SDS011;32463;48.298;11.620;2022-11-23T09:40:57;7.22;;;3.20;;
46723;SDS011;32463;48.298;11.620;2022-11-23T09:46:20;9.70;;;3.08;;
46723;SDS011;32463;48.298;11.620;2022-11-23T09:49:09;6.65;;;2.42;;
46723;SDS011;32463;48.298;11.620;2022-11-23T09:51:38;6.00;;;2.57;;
46723;SDS011;32463;48.298;11.620;2022-11-23T09:56:50;6.72;;;2.35;;
46723;SDS011;32463;48.298;11.620;2022-11-23T10:01:56;3.65;;;1.83;;
46723;SDS011;32463;48.298;11.620;2022-11-23T10:04:23;5.18;;;2.17;;
46723;SDS011;32463;48.298;11.620;2022-11-23T10:06:55;4.35;;;1.80;;
46723;SDS011;32463;48.298;11.620;2022-11-23T10:15:20;5.50;;;1.65;;
46723;SDS011;32463;48.298;11.620;2022-11-23T10:18:01;5.63;;;1.98;;
46723;SDS011;32463;48.298;11.620;2022-11-23T10:26:31;6.97;;;1.80;;
46723;SDS011;32463;48.298;11.620;2022-11-23T10:29:34;5.45;;;1.90;;
46723;SDS011;32463;48.298;11.620;2022-11-23T10:31:58;5.43;;;1.48;;
46723;SDS011;32463;48.298;11.620;2022-11-23T10:37:32;5.05;;;1.38;;
46723;SDS011;32463;48.298;11.620;2022-11-23T10:39:59;4.50;;;1.45;;
46723;SDS011;32463;48.298;11.620;2022-11-23T10:42:36;2.70;;;1.20;;
46723;SDS011;32463;48.298;11.620;2022-11-23T10:45:19;3.08;;;1.52;;
46723;SDS011;32463;48.298;11.620;2022-11-23T10:47:54;4.30;;;1.38;;
46723;SDS011;32463;48.298;11.620;2022-11-23T10:52:59;5.28;;;1.65;;
46723;SDS011;32463;48.298;11.620;2022-11-23T10:58:33;3.95;;;1.38;;
46723;SDS011;32463;48.298;11.620;2022-11-23T11:01:12;5.87;;;1.37;;
46723;SDS011;32463;48.298;11.620;2022-11-23T11:03:47;6.70;;;1.40;;
46723;SDS011;32463;48.298;11.620;2022-11-23T11:06:23;5.20;;;1.38;;
46723;SDS011;32463;48.298;11.620;2022-11-23T11:09:02;2.80;;;1.10;;
46723;SDS011;32463;48.298;11.620;2022-11-23T11:11:31;3.38;;;1.05;;
46723;SDS011;32463;48.298;11.620;2022-11-23T11:14:01;5.68;;;1.50;;
46723;SDS011;32463;48.298;11.620;2022-11-23T11:16:47;3.45;;;1.00;;
46723;SDS011;32463;48.298;11.620;2022-11-23T11:19:29;3.22;;;1.30;;
46723;SDS011;32463;48.298;11.620;2022-11-23T11:21:58;3.28;;;1.33;;
46723;SDS011;32463;48.298;11.620;2022-11-23T11:27:00;4.70;;;1.48;;
46723;SDS011;32463;48.298;11.620;2022-11-23T11:29:33;3.33;;;1.20;;
46723;SDS011;32463;48.298;11.620;2022-11-23T11:32:08;4.00;;;1.50;;
46723;SDS011;32463;48.298;11.620;2022-11-23T11:40:05;2.55;;;1.10;;
46723;SDS011;32463;48.298;11.620;2022-11-23T11:43:28;3.20;;;1.42;;
46723;SDS011;32463;48.298;11.620;2022-11-23T11:45:45;3.97;;;1.45;;
46723;SDS011;32463;48.298;11.620;2022-11-23T11:48:24;4.05;;;1.35;;
46723;SDS011;32463;48.298;11.620;2022-11-23T11:51:04;4.07;;;1.25;;
46723;SDS011;32463;48.298;11.620;2022-11-23T11:53:36;4.70;;;1.40;;
46723;SDS011;32463;48.298;11.620;2022-11-23T11:58:49;5.95;;;1.50;;
46723;SDS011;32463;48.298;11.620;2022-11-23T12:01:32;3.67;;;1.30;;
46723;SDS011;32463;48.298;11.620;2022-11-23T12:04:06;3.75;;;1.30;;
46723;SDS011;32463;48.298;11.620;2022-11-23T12:10:02;5.88;;;1.42;;
46723;SDS011;32463;48.298;11.620;2022-11-23T12:12:32;4.90;;;1.20;;
46723;SDS011;32463;48.298;11.620;2022-11-23T12:15:02;3.60;;;1.73;;
46723;SDS011;32463;48.298;11.620;2022-11-23T12:20:31;4.30;;;1.27;;
46723;SDS011;32463;48.298;11.620;2022-11-23T12:29:39;4.05;;;1.25;;
46723;SDS011;32463;48.298;11.620;2022-11-23T12:35:16;4.25;;;1.50;;
46723;SDS011;32463;48.298;11.620;2022-11-23T12:40:28;6.03;;;1.70;;
46723;SDS011;32463;48.298;11.620;2022-11-23T12:43:00;6.45;;;1.60;;
46723;SDS011;32463;48.298;11.620;2022-11-23T12:53:51;6.28;;;1.58;;
46723;SDS011;32463;48.298;11.620;2022-11-23T12:59:39;6.10;;;1.40;;
46723;SDS011;32463;48.298;11.620;2022-11-23T13:02:13;3.97;;;1.40;;
46723;SDS011;32463;48.298;11.620;2022-11-23T13:16:35;4.70;;;1.45;;
46723;SDS011;32463;48.298;11.620;2022-11-23T13:21:59;4.75;;;1.40;;
46723;SDS011;32463;48.298;11.620;2022-11-23T13:24:31;3.33;;;1.30;;
46723;SDS011;32463;48.298;11.620;2022-11-23T13:29:45;4.35;;;1.10;;
46723;SDS011;32463;48.298;11.620;2022-11-23T13:40:28;6.28;;;1.20;;
46723;SDS011;32463;48.298;11.620;2022-11-23T13:48:50;6.70;;;1.40;;
46723;SDS011;32463;48.298;11.620;2022-11-23T13:51:22;2.57;;;1.30;;
46723;SDS011;32463;48.298;11.620;2022-11-23T13:54:01;5.00;;;1.30;;
46723;SDS011;32463;48.298;11.620;2022-11-23T13:56:30;4.78;;;1.20;;
46723;SDS011;32463;48.298;11.620;2022-11-23T14:09:35;6.55;;;3.53;;
46723;SDS011;32463;48.298;11.620;2022-11-23T14:14:48;3.20;;;1.40;;
46723;SDS011;32463;48.298;11.620;2022-11-23T14:34:31;2.63;;;1.33;;
46723;SDS011;32463;48.298;11.620;2022-11-23T14:42:52;4.15;;;1.67;;
46723;SDS011;32463;48.298;11.620;2022-11-23T14:45:21;8.30;;;1.83;;
46723;SDS011;32463;48.298;11.620;2022-11-23T14:47:51;4.18;;;1.30;;
46723;SDS011;32463;48.298;11.620;2022-11-23T14:50:22;5.10;;;1.27;;
46723;SDS011;32463;48.298;11.620;2022-11-23T14:52:53;2.28;;;1.08;;
46723;SDS011;32463;48.298;11.620;2022-11-23T14:55:26;4.07;;;1.40;;
46723;SDS011;32463;48.298;11.620;2022-11-23T14:57:56;5.13;;;1.23;;
46723;SDS011;32463;48.298;11.620;2022-11-23T15:00:35;5.00;;;1.30;;
46723;SDS011;32463;48.298;11.620;2022-11-23T15:03:06;4.20;;;1.13;;
46723;SDS011;32463;48.298;11.620;2022-11-23T15:05:39;3.35;;;1.10;;
46723;SDS011;32463;48.298;11.620;2022-11-23T15:08:20;4.55;;;1.73;;
46723;SDS011;32463;48.298;11.620;2022-11-23T15:13:52;5.97;;;1.38;;
46723;SDS011;32463;48.298;11.620;2022-11-23T15:16:21;4.60;;;1.48;;
46723;SDS011;32463;48.298;11.620;2022-11-23T15:18:48;4.15;;;1.38;;
46723;SDS011;32463;48.298;11.620;2022-11-23T15:23:56;6.53;;;1.73;;
46723;SDS011;32463;48.298;11.620;2022-11-23T15:26:27;7.50;;;1.42;;
46723;SDS011;32463;48.298;11.620;2022-11-23T15:28:55;5.47;;;1.70;;
46723;SDS011;32463;48.298;11.620;2022-11-23T15:33:53;6.50;;;1.77;;
46723;SDS011;32463;48.298;11.620;2022-11-23T15:36:26;4.55;;;1.73;;
46723;SDS011;32463;48.298;11.620;2022-11-23T15:38:56;7.53;;;2.45;;
46723;SDS011;32463;48.298;11.620;2022-11-23T15:41:25;7.95;;;1.77;;
46723;SDS011;32463;48.298;11.620;2022-11-23T15:43:53;4.10;;;1.83;;
46723;SDS011;32463;48.298;11.620;2022-11-23T15:46:22;4.72;;;1.85;;
46723;SDS011;32463;48.298;11.620;2022-11-23T15:48:51;5.28;;;2.10;;
46723;SDS011;32463;48.298;11.620;2022-11-23T15:51:23;7.57;;;3.20;;
46723;SDS011;32463;48.298;11.620;2022-11-23T15:53:58;8.20;;;3.60;;
46723;SDS011;32463;48.298;11.620;2022-11-23T15:58:52;6.32;;;2.88;;
46723;SDS011;32463;48.298;11.620;2022-11-23T16:01:19;5.28;;;2.22;;
46723;SDS011;32463;48.298;11.620;2022-11-23T16:03:51;8.73;;;2.60;;
46723;SDS011;32463;48.298;11.620;2022-11-23T16:06:23;5.90;;;2.40;;
46723;SDS011;32463;48.298;11.620;2022-11-23T16:08:58;8.23;;;3.13;;
46723;SDS011;32463;48.298;11.620;2022-11-23T16:11:34;8.35;;;3.50;;
46723;SDS011;32463;48.298;11.620;2022-11-23T16:14:17;8.73;;;3.75;;
46723;SDS011;32463;48.298;11.620;2022-11-23T16:16:46;6.45;;;2.42;;
46723;SDS011;32463;48.298;11.620;2022-11-23T16:19:25;6.65;;;2.17;;
46723;SDS011;32463;48.298;11.620;2022-11-23T16:22:04;6.13;;;2.47;;
46723;SDS011;32463;48.298;11.620;2022-11-23T16:24:33;7.65;;;2.42;;
46723;SDS011;32463;48.298;11.620;2022-11-23T16:27:01;9.57;;;2.72;;
46723;SDS011;32463;48.298;11.620;2022-11-23T16:29:37;5.10;;;1.98;;
46723;SDS011;32463;48.298;11.620;2022-11-23T16:32:19;4.05;;;2.10;;
46723;SDS011;32463;48.298;11.620;2022-11-23T16:34:47;7.32;;;2.80;;
46723;SDS011;32463;48.298;11.620;2022-11-23T16:37:13;7.55;;;2.97;;
46723;SDS011;32463;48.298;11.620;2022-11-23T16:39:40;10.57;;;3.10;;
46723;SDS011;32463;48.298;11.620;2022-11-23T16:42:10;5.35;;;2.97;;
46723;SDS011;32463;48.298;11.620;2022-11-23T16:44:37;6.13;;;3.35;;
46723;SDS011;32463;48.298;11.620;2022-11-23T16:47:26;15.63;;;7.55;;
46723;SDS011;32463;48.298;11.620;2022-11-23T16:49:52;12.25;;;4.32;;
46723;SDS011;32463;48.298;11.620;2022-11-23T16:52:19;8.23;;;3.95;;
46723;SDS011;32463;48.298;11.620;2022-11-23T16:54:47;6.65;;;3.53;;
46723;SDS011;32463;48.298;11.620;2022-11-23T16:57:16;12.52;;;4.72;;
46723;SDS011;32463;48.298;11.620;2022-11-23T16:59:52;10.95;;;4.57;;
46723;SDS011;32463;48.298;11.620;2022-11-23T17:02:18;12.48;;;4.40;;
46723;SDS011;32463;48.298;11.620;2022-11-23T17:04:45;7.85;;;3.75;;
46723;SDS011;32463;48.298;11.620;2022-11-23T17:07:12;9.55;;;4.65;;
46723;SDS011;32463;48.298;11.620;2022-11-23T17:09:40;9.23;;;4.70;;
46723;SDS011;32463;48.298;11.620;2022-11-23T17:12:13;9.10;;;4.15;;
46723;SDS011;32463;48.298;11.620;2022-11-23T17:14:42;6.93;;;3.47;;
46723;SDS011;32463;48.298;11.620;2022-11-23T17:17:12;9.93;;;3.22;;
46723;SDS011;32463;48.298;11.620;2022-11-23T17:19:43;7.60;;;3.17;;
46723;SDS011;32463;48.298;11.620;2022-11-23T17:22:12;6.80;;;3.38;;
46723;SDS011;32463;48.298;11.620;2022-11-23T17:24:39;6.65;;;3.20;;
46723;SDS011;32463;48.298;11.620;2022-11-23T17:27:08;9.63;;;3.38;;
46723;SDS011;32463;48.298;11.620;2022-11-23T17:29:39;6.60;;;3.08;;
46723;SDS011;32463;48.298;11.620;2022-11-23T17:32:08;7.55;;;3.20;;
46723;SDS011;32463;48.298;11.620;2022-11-23T17:34:36;8.45;;;3.30;;
46723;SDS011;32463;48.298;11.620;2022-11-23T17:37:03;13.13;;;3.05;;
46723;SDS011;32463;48.298;11.620;2022-11-23T17:39:30;8.38;;;3.65;;
46723;SDS011;32463;48.298;11.620;2022-11-23T17:41:57;10.15;;;3.50;;
46723;SDS011;32463;48.298;11.620;2022-11-23T17:44:23;8.85;;;4.93;;
46723;SDS011;32463;48.298;11.620;2022-11-23T17:46:50;11.43;;;4.32;;
46723;SDS011;32463;48.298;11.620;2022-11-23T17:49:19;8.63;;;4.07;;
46723;SDS011;32463;48.298;11.620;2022-11-23T17:51:51;10.55;;;3.70;;
46723;SDS011;32463;48.298;11.620;2022-11-23T17:54:18;6.63;;;3.78;;
46723;SDS011;32463;48.298;11.620;2022-11-23T17:56:44;6.60;;;3.90;;
46723;SDS011;32463;48.298;11.620;2022-11-23T17:59:10;9.57;;;4.30;;
46723;SDS011;32463;48.298;11.620;2022-11-23T18:01:37;9.52;;;4.43;;
46723;SDS011;32463;48.298;11.620;2022-11-23T18:04:05;8.45;;;4.40;;
46723;SDS011;32463;48.298;11.620;2022-11-23T18:06:31;11.70;;;5.10;;
46723;SDS011;32463;48.298;11.620;2022-11-23T18:08:58;10.98;;;4.93;;
46723;SDS011;32463;48.298;11.620;2022-11-23T18:11:24;7.97;;;4.22;;
46723;SDS011;32463;48.298;11.620;2022-11-23T18:13:52;11.13;;;5.30;;
46723;SDS011;32463;48.298;11.620;2022-11-23T18:16:19;9.80;;;4.90;;
46723;SDS011;32463;48.298;11.620;2022-11-23T18:18:47;10.50;;;5.07;;
46723;SDS011;32463;48.298;11.620;2022-11-23T18:21:15;9.57;;;4.95;;
46723;SDS011;32463;48.298;11.620;2022-11-23T18:23:42;9.55;;;4.95;;
46723;SDS011;32463;48.298;11.620;2022-11-23T18:28:43;11.73;;;5.75;;
46723;SDS011;32463;48.298;11.620;2022-11-23T18:31:09;10.40;;;5.43;;
46723;SDS011;32463;48.298;11.620;2022-11-23T18:33:38;11.15;;;5.03;;
46723;SDS011;32463;48.298;11.620;2022-11-23T18:36:05;8.98;;;4.70;;
46723;SDS011;32463;48.298;11.620;2022-11-23T18:38:32;11.52;;;5.53;;
46723;SDS011;32463;48.298;11.620;2022-11-23T18:40:59;11.35;;;5.68;;
46723;SDS011;32463;48.298;11.620;2022-11-23T18:43:26;10.98;;;5.57;;
46723;SDS011;32463;48.298;11.620;2022-11-23T18:45:53;10.30;;;5.30;;
46723;SDS011;32463;48.298;11.620;2022-11-23T18:48:20;14.57;;;5.95;;
46723;SDS011;32463;48.298;11.620;2022-11-23T18:50:46;9.05;;;5.68;;
46723;SDS011;32463;48.298;11.620;2022-11-23T18:53:15;14.48;;;6.07;;
46723;SDS011;32463;48.298;11.620;2022-11-23T18:55:42;11.90;;;5.50;;
46723;SDS011;32463;48.298;11.620;2022-11-23T18:58:09;15.85;;;6.10;;
46723;SDS011;32463;48.298;11.620;2022-11-23T19:00:35;11.30;;;5.38;;
46723;SDS011;32463;48.298;11.620;2022-11-23T19:03:02;8.88;;;5.00;;
46723;SDS011;32463;48.298;11.620;2022-11-23T19:05:30;12.43;;;5.70;;
46723;SDS011;32463;48.298;11.620;2022-11-23T19:08:02;8.48;;;5.30;;
46723;SDS011;32463;48.298;11.620;2022-11-23T19:10:31;9.90;;;5.20;;
46723;SDS011;32463;48.298;11.620;2022-11-23T19:12:59;17.33;;;9.10;;
46723;SDS011;32463;48.298;11.620;2022-11-23T19:15:25;15.80;;;7.80;;
46723;SDS011;32463;48.298;11.620;2022-11-23T19:17:52;12.77;;;7.40;;
46723;SDS011;32463;48.298;11.620;2022-11-23T19:20:19;15.77;;;8.35;;
46723;SDS011;32463;48.298;11.620;2022-11-23T19:22:47;14.05;;;8.40;;
46723;SDS011;32463;48.298;11.620;2022-11-23T19:25:15;19.27;;;10.93;;
46723;SDS011;32463;48.298;11.620;2022-11-23T19:27:42;13.02;;;7.88;;
46723;SDS011;32463;48.298;11.620;2022-11-23T19:30:09;35.50;;;19.85;;
46723;SDS011;32463;48.298;11.620;2022-11-23T19:32:37;14.63;;;8.80;;
46723;SDS011;32463;48.298;11.620;2022-11-23T19:35:04;17.70;;;9.07;;
46723;SDS011;32463;48.298;11.620;2022-11-23T19:37:33;17.70;;;9.98;;
46723;SDS011;32463;48.298;11.620;2022-11-23T19:40:00;22.45;;;12.82;;
46723;SDS011;32463;48.298;11.620;2022-11-23T19:42:27;26.00;;;14.30;;
46723;SDS011;32463;48.298;11.620;2022-11-23T19:44:53;17.27;;;9.45;;
46723;SDS011;32463;48.298;11.620;2022-11-23T19:47:20;14.60;;;7.50;;
46723;SDS011;32463;48.298;11.620;2022-11-23T19:49:47;15.05;;;6.90;;
46723;SDS011;32463;48.298;11.620;2022-11-23T19:52:14;14.05;;;6.57;;
46723;SDS011;32463;48.298;11.620;2022-11-23T19:54:40;12.68;;;6.82;;
46723;SDS011;32463;48.298;11.620;2022-11-23T19:57:06;13.57;;;6.75;;
46723;SDS011;32463;48.298;11.620;2022-11-23T19:59:33;14.00;;;6.70;;
46723;SDS011;32463;48.298;11.620;2022-11-23T20:02:00;14.93;;;6.43;;
46723;SDS011;32463;48.298;11.620;2022-11-23T20:04:26;12.40;;;6.35;;
46723;SDS011;32463;48.298;11.620;2022-11-23T20:06:53;12.13;;;6.25;;
46723;SDS011;32463;48.298;11.620;2022-11-23T20:09:19;9.15;;;5.50;;
46723;SDS011;32463;48.298;11.620;2022-11-23T20:11:46;9.93;;;4.78;;
46723;SDS011;32463;48.298;11.620;2022-11-23T20:14:13;13.10;;;5.72;;
46723;SDS011;32463;48.298;11.620;2022-11-23T20:16:40;8.82;;;4.35;;
46723;SDS011;32463;48.298;11.620;2022-11-23T20:19:07;7.88;;;3.97;;
46723;SDS011;32463;48.298;11.620;2022-11-23T20:21:35;6.13;;;3.47;;
46723;SDS011;32463;48.298;11.620;2022-11-23T20:24:04;5.78;;;3.15;;
46723;SDS011;32463;48.298;11.620;2022-11-23T20:26:36;6.93;;;2.95;;
46723;SDS011;32463;48.298;11.620;2022-11-23T20:29:04;6.20;;;3.10;;
46723;SDS011;32463;48.298;11.620;2022-11-23T20:31:35;8.23;;;2.78;;
46723;SDS011;32463;48.298;11.620;2022-11-23T20:34:02;5.32;;;2.28;;
46723;SDS011;32463;48.298;11.620;2022-11-23T20:36:30;3.95;;;2.25;;
46723;SDS011;32463;48.298;11.620;2022-11-23T20:39:03;8.10;;;2.30;;
46723;SDS011;32463;48.298;11.620;2022-11-23T20:41:32;5.47;;;2.97;;
46723;SDS011;32463;48.298;11.620;2022-11-23T20:44:01;8.13;;;3.97;;
46723;SDS011;32463;48.298;11.620;2022-11-23T20:46:30;4.25;;;2.47;;
46723;SDS011;32463;48.298;11.620;2022-11-23T20:48:57;6.07;;;1.95;;
46723;SDS011;32463;48.298;11.620;2022-11-23T20:51:25;3.97;;;2.38;;
46723;SDS011;32463;48.298;11.620;2022-11-23T20:53:53;3.47;;;1.75;;
46723;SDS011;32463;48.298;11.620;2022-11-23T20:56:20;3.00;;;1.90;;
46723;SDS011;32463;48.298;11.620;2022-11-23T20:58:46;4.28;;;1.80;;
46723;SDS011;32463;48.298;11.620;2022-11-23T21:01:17;5.68;;;1.85;;
46723;SDS011;32463;48.298;11.620;2022-11-23T21:03:48;3.15;;;1.90;;
46723;SDS011;32463;48.298;11.620;2022-11-23T21:06:18;3.85;;;1.75;;
46723;SDS011;32463;48.298;11.620;2022-11-23T21:08:46;3.70;;;1.90;;
46723;SDS011;32463;48.298;11.620;2022-11-23T21:14:04;4.80;;;2.20;;
46723;SDS011;32463;48.298;11.620;2022-11-23T21:16:43;4.28;;;2.10;;
46723;SDS011;32463;48.298;11.620;2022-11-23T21:19:20;4.80;;;2.20;;
46723;SDS011;32463;48.298;11.620;2022-11-23T21:21:48;5.03;;;2.42;;
46723;SDS011;32463;48.298;11.620;2022-11-23T21:24:17;4.45;;;2.47;;
46723;SDS011;32463;48.298;11.620;2022-11-23T21:26:43;3.10;;;2.03;;
46723;SDS011;32463;48.298;11.620;2022-11-23T21:29:14;4.43;;;2.35;;
46723;SDS011;32463;48.298;11.620;2022-11-23T21:31:56;6.65;;;2.58;;
46723;SDS011;32463;48.298;11.620;2022-11-23T21:34:26;4.82;;;2.70;;
46723;SDS011;32463;48.298;11.620;2022-11-23T21:36:55;6.45;;;2.88;;
46723;SDS011;32463;48.298;11.620;2022-11-23T21:39:22;5.32;;;2.72;;
46723;SDS011;32463;48.298;11.620;2022-11-23T21:41:50;5.30;;;3.10;;
46723;SDS011;32463;48.298;11.620;2022-11-23T21:44:17;5.05;;;2.78;;
46723;SDS011;32463;48.298;11.620;2022-11-23T21:46:46;4.07;;;2.63;;
46723;SDS011;32463;48.298;11.620;2022-11-23T21:49:12;4.22;;;2.60;;
46723;SDS011;32463;48.298;11.620;2022-11-23T21:51:39;4.43;;;2.70;;
46723;SDS011;32463;48.298;11.620;2022-11-23T21:54:06;6.18;;;2.88;;
46723;SDS011;32463;48.298;11.620;2022-11-23T21:56:39;4.10;;;2.63;;
46723;SDS011;32463;48.298;11.620;2022-11-23T21:59:08;4.78;;;2.90;;
46723;SDS011;32463;48.298;11.620;2022-11-23T22:01:35;5.07;;;2.65;;
46723;SDS011;32463;48.298;11.620;2022-11-23T22:04:04;4.40;;;2.85;;
46723;SDS011;32463;48.298;11.620;2022-11-23T22:06:36;6.47;;;3.47;;
46723;SDS011;32463;48.298;11.620;2022-11-23T22:09:06;5.10;;;3.25;;
46723;SDS011;32463;48.298;11.620;2022-11-23T22:11:34;5.25;;;3.22;;
46723;SDS011;32463;48.298;11.620;2022-11-23T22:14:06;6.22;;;3.25;;
46723;SDS011;32463;48.298;11.620;2022-11-23T22:16:36;4.57;;;2.90;;
46723;SDS011;32463;48.298;11.620;2022-11-23T22:19:04;4.38;;;3.10;;
46723;SDS011;32463;48.298;11.620;2022-11-23T22:21:34;4.78;;;3.38;;
46723;SDS011;32463;48.298;11.620;2022-11-23T22:24:02;5.00;;;3.95;;
46723;SDS011;32463;48.298;11.620;2022-11-23T22:26:30;5.93;;;3.92;;
46723;SDS011;32463;48.298;11.620;2022-11-23T22:28:57;5.60;;;3.85;;
46723;SDS011;32463;48.298;11.620;2022-11-23T22:31:26;5.70;;;4.07;;
46723;SDS011;32463;48.298;11.620;2022-11-23T22:33:57;8.02;;;5.78;;
46723;SDS011;32463;48.298;11.620;2022-11-23T22:36:24;8.90;;;5.10;;